TFM - Tactical Decision Aid
ID: Runway Winds: CIG/VIS Threshold:

KATL - Atlanta/Hartsfield-J, GA, US

Updated at: 1929 UTC 19 Aug 2019
Latest TAF at: 1742 UTC 19 Aug 2019

TAF Board

Time1852Z 19/20Z 19/21Z 19/22Z 19/23Z 20/00Z 20/01Z 20/02Z 20/03Z 20/04Z 20/05Z 20/06Z 20/07Z 20/08Z>>
Type OBS PRVL
  [TEMP]  
PRVL
  [TEMP]  
PRVL
  [TEMP]  
PRVL
  [TEMP]  
PRVL PRVL PRVL PRVL PRVL PRVL PRVL PRVL PRVL
VIS 10 >6
  [5]  
>6
  [5]  
>6
  [5]  
>6
  [5]  
>6 >6 >6 >6 >6 >6 >6 >6 >6
CIG 250 --
  [40]  
--
  [40]  
--
  [40]  
--
  [40]  
-- -- -- -- -- -- -- -- --
Cover BKN SCT
  [BKN]  
SCT
  [BKN]  
SCT
  [BKN]  
SCT
  [BKN]  
SCT SCT SCT SCT SCT SCT SCT SCT SCT
FltCat VFR VFR
  [MVFR]  
VFR
  [MVFR]  
VFR
  [MVFR]  
VFR
  [MVFR]  
VFR VFR VFR VFR VFR VFR VFR VFR VFR
WX -- VCSH
  [TSRA]  
VCSH
  [TSRA]  
VCSH
  [TSRA]  
VCSH
  [TSRA]  
VCSH VCSH VCSH -- -- -- -- -- --
WDir 150 90
[VRB]
90
[VRB]
90
[VRB]
90
[VRB]
90 90 90 120 120 120 120 120 120
WSpd 7 5
  [10]  
5
  [10]  
5
  [10]  
5
  [10]  
5 5 5 5 5 5 5 5 5
WGst -- --
  [20]  
--
  [20]  
--
  [20]  
--
  [20]  
-- -- -- -- -- -- -- -- --

TDA Impact Legend

  None Marginal Slight Moderate High
Visibility (sm) >5 3≤X≤5 1≤X<3 0.5≤X<1 <0.5
Ceiling (100 ft) >30 10≤X≤30 4≤X<10 2≤X<4 <2
Wind Speed (kt) <15 15≤X<25 25≤X<30 ≥30
Wind Gust (kt) <15 15≤X<25 25≤X<35 ≥35
Weather No Wx Reported VCTS -TS,-FZRA TS,FZRA +TS,+FZRA
TAF
KATL 191742Z 1918/2024 10005KT P6SM FEW030 BKN150
  FM191900 09005KT P6SM VCSH SCT050
  TEMPO 1920/1924 VRB10G20KT 5SM TSRA BKN040CB
  FM200300 12005KT P6SM SCT250
  FM201000 10003KT P6SM SCT030 SCT250
  FM201200 07003KT P6SM BKN030
  FM201400 10003KT P6SM SCT040
  PROB30 2019/2023 5SM TSRA BKN040CB


METAR
KATL 191852Z 15007KT 10SM FEW040 SCT150 BKN250 32/22 A3007 RMK AO2 SLP169 CB DSNT NW-N-NE T03170222
KATL 191752Z 10005KT 10SM FEW040 BKN150 BKN200 31/22 A3010 RMK AO2 SLP181 VIRGA OHD-N-E-SE W CB DSNT N-NE T03060217 10306 20250 58001
KATL 191652Z 11005KT 10SM FEW030 BKN150 BKN200 30/23 A3012 RMK AO2 SLP187 VIRGA NE-SE T03000228

Radar Display
Forecast Discussion